Time;durP1;ratioP1;P1;durP2;ratioP2;P2;SDS_P1;SDS_P2;PMS_P1;PMS_P2;Temp;Humidity;BMP_temperature;BMP_pressure;BME280_temperature;BME280_humidity;BME280_pressure;Samples;Min_cycle;Max_cycle;Signal;HPM_P1;HPM_P2
2021/12/12 00:02:21;;;;;;;41.05;19.77;;;1.80;99.90;;;;;;5110807;28;20027;-43
2021/12/12 00:04:48;;;;;;;45.20;20.88;;;1.80;99.90;;;;;;5110488;28;20028;-42
2021/12/12 00:07:21;;;;;;;42.20;21.50;;;1.70;99.90;;;;;;5109789;28;20024;-43
2021/12/12 00:09:51;;;;;;;40.90;21.63;;;1.70;99.90;;;;;;5110485;28;20020;-42
2021/12/12 00:12:22;;;;;;;44.38;21.95;;;1.70;99.90;;;;;;5106393;28;20111;-43
2021/12/12 00:14:48;;;;;;;46.28;23.15;;;1.70;99.90;;;;;;5106451;28;20024;-43
2021/12/12 00:17:14;;;;;;;43.50;21.75;;;1.70;99.90;;;;;;5109703;28;20088;-43
2021/12/12 00:19:40;;;;;;;40.75;21.88;;;1.70;99.90;;;;;;5110223;28;20039;-42
2021/12/12 00:22:10;;;;;;;43.45;21.83;;;1.70;99.90;;;;;;5110006;28;20484;-43
2021/12/12 00:24:37;;;;;;;47.40;22.38;;;1.70;99.90;;;;;;5110384;28;20462;-42
2021/12/12 00:27:03;;;;;;;42.75;21.45;;;1.80;99.90;;;;;;5108751;28;20031;-42
2021/12/12 00:29:29;;;;;;;45.33;21.48;;;1.80;99.90;;;;;;5108287;28;20386;-43
2021/12/12 00:32:00;;;;;;;47.00;21.75;;;1.80;99.90;;;;;;5109787;28;20038;-43
2021/12/12 00:34:31;;;;;;;46.97;21.92;;;1.90;99.90;;;;;;5110305;28;20055;-43
2021/12/12 00:36:57;;;;;;;43.50;21.05;;;1.90;99.90;;;;;;5109835;28;20055;-42
2021/12/12 00:39:27;;;;;;;49.75;21.92;;;2.00;99.90;;;;;;5109057;28;20044;-43
2021/12/12 00:42:23;;;;;;;45.35;20.92;;;2.00;99.90;;;;;;5109410;28;20094;-43
2021/12/12 00:44:52;;;;;;;42.40;21.25;;;2.00;99.90;;;;;;5093295;28;20087;-43
2021/12/12 00:47:20;;;;;;;48.50;20.77;;;2.00;99.90;;;;;;5109094;28;20063;-44
2021/12/12 00:49:46;;;;;;;40.85;21.52;;;2.10;99.90;;;;;;5109732;28;20031;-43
2021/12/12 00:52:15;;;;;;;43.30;21.38;;;2.10;99.90;;;;;;5109424;28;20495;-43
2021/12/12 00:54:42;;;;;;;37.88;19.42;;;2.20;99.90;;;;;;5109573;28;20168;-43
2021/12/12 00:57:12;;;;;;;43.55;21.98;;;2.20;99.90;;;;;;5108193;28;20019;-44
2021/12/12 00:59:38;;;;;;;45.55;20.92;;;2.20;99.90;;;;;;5107911;28;20028;-43
2021/12/12 01:02:08;;;;;;;46.40;22.92;;;2.20;99.90;;;;;;5109470;28;20034;-43
2021/12/12 01:04:38;;;;;;;42.60;20.38;;;2.20;99.90;;;;;;5109469;28;20386;-42
2021/12/12 01:07:08;;;;;;;43.47;22.08;;;2.20;99.90;;;;;;5109245;28;20077;-42
2021/12/12 01:09:40;;;;;;;42.65;21.38;;;2.20;99.90;;;;;;5108481;28;20088;-42
2021/12/12 01:12:10;;;;;;;38.00;19.20;;;2.30;99.90;;;;;;5106993;28;20058;-42
2021/12/12 01:14:42;;;;;;;41.80;21.20;;;2.30;99.90;;;;;;5103663;28;20026;-44
2021/12/12 01:17:12;;;;;;;38.50;19.80;;;2.30;99.90;;;;;;5109591;28;20020;-44
2021/12/12 01:19:51;;;;;;;42.25;20.08;;;2.30;99.90;;;;;;5109086;28;20082;-43
2021/12/12 01:22:26;;;;;;;44.15;20.88;;;2.30;99.90;;;;;;5108927;28;20031;-43
2021/12/12 01:24:55;;;;;;;44.55;20.33;;;2.30;99.90;;;;;;5109415;28;20397;-42
2021/12/12 01:27:21;;;;;;;46.42;20.88;;;2.30;99.90;;;;;;5108580;28;20011;-43
2021/12/12 01:29:49;;;;;;;47.33;22.65;;;2.30;99.90;;;;;;5109159;28;20027;-43
2021/12/12 01:32:26;;;;;;;44.17;23.23;;;2.30;99.90;;;;;;5109275;28;20019;-42
2021/12/12 01:34:54;;;;;;;45.58;21.70;;;2.30;99.90;;;;;;5107798;28;20118;-42
2021/12/12 01:39:57;;;;;;;48.45;22.20;;;2.30;99.90;;;;;;5108885;28;20035;-42
2021/12/12 01:42:48;;;;;;;45.70;22.73;;;2.30;99.90;;;;;;5104034;28;20020;-43
2021/12/12 01:45:39;;;;;;;42.15;23.65;;;2.30;99.90;;;;;;5101150;28;20298;-42
2021/12/12 01:48:35;;;;;;;42.80;22.05;;;2.40;99.90;;;;;;5108213;28;20035;-42
2021/12/12 01:51:05;;;;;;;43.63;21.45;;;2.40;99.90;;;;;;5109089;28;20023;-42
2021/12/12 01:53:33;;;;;;;47.58;22.70;;;2.40;99.90;;;;;;5108770;28;20477;-43
2021/12/12 01:56:07;;;;;;;51.58;22.48;;;2.40;99.90;;;;;;5108984;28;20020;-43
2021/12/12 01:58:38;;;;;;;47.35;22.83;;;2.40;99.90;;;;;;5108367;28;20027;-42
2021/12/12 02:01:07;;;;;;;45.78;23.45;;;2.40;99.90;;;;;;5108984;28;20536;-43
2021/12/12 02:03:36;;;;;;;50.90;24.20;;;2.40;99.90;;;;;;5108760;28;20118;-44
2021/12/12 02:06:06;;;;;;;44.67;21.98;;;2.40;99.90;;;;;;5108828;28;20028;-43
2021/12/12 02:08:32;;;;;;;44.88;21.80;;;2.40;99.90;;;;;;5108126;28;20036;-42
2021/12/12 02:11:03;;;;;;;45.63;22.42;;;2.40;99.90;;;;;;5108745;28;20470;-43
2021/12/12 02:13:30;;;;;;;50.13;22.05;;;2.40;99.90;;;;;;5100216;28;20012;-42
2021/12/12 02:15:59;;;;;;;44.22;20.75;;;2.40;99.90;;;;;;5108764;28;20462;-43
2021/12/12 02:18:31;;;;;;;42.45;20.30;;;2.40;99.90;;;;;;5108498;28;20020;-44
2021/12/12 02:21:15;;;;;;;44.75;22.42;;;2.40;99.90;;;;;;5109026;28;20028;-43
2021/12/12 02:37:30;;;;;;;45.78;21.15;;;2.20;99.90;;;;;;5091004;28;20405;-43
2021/12/12 02:39:57;;;;;;;43.25;21.05;;;2.20;99.90;;;;;;5091807;28;20028;-43
2021/12/12 02:42:23;;;;;;;40.22;21.52;;;2.20;99.90;;;;;;5087111;28;20484;-42
2021/12/12 02:44:54;;;;;;;42.75;20.67;;;2.20;99.90;;;;;;5086624;28;20016;-43
2021/12/12 02:47:24;;;;;;;48.47;22.88;;;2.20;99.90;;;;;;5091112;28;20048;-42
2021/12/12 02:50:09;;;;;;;47.22;22.63;;;2.20;99.90;;;;;;5091971;28;20034;-42
2021/12/12 02:52:36;;;;;;;41.25;20.05;;;2.20;99.90;;;;;;5091512;28;20485;-44
2021/12/12 02:55:12;;;;;;;40.60;20.17;;;2.20;99.90;;;;;;5092045;28;20024;-43
2021/12/12 02:57:39;;;;;;;40.22;20.10;;;2.20;99.90;;;;;;5089575;28;20541;-43
2021/12/12 03:00:09;;;;;;;43.95;21.88;;;2.20;99.90;;;;;;5091890;28;20036;-43
2021/12/12 03:02:43;;;;;;;45.15;21.20;;;2.30;99.90;;;;;;5091554;28;20030;-43
2021/12/12 03:05:09;;;;;;;51.80;22.17;;;2.30;99.90;;;;;;5090170;28;20282;-43
2021/12/12 03:07:34;;;;;;;40.78;19.65;;;2.20;99.90;;;;;;5090473;28;20095;-42
2021/12/12 03:10:00;;;;;;;40.70;20.30;;;2.30;99.90;;;;;;5091372;28;20035;-43
2021/12/12 03:12:33;;;;;;;41.58;19.95;;;2.20;99.90;;;;;;5084551;28;20023;-43
2021/12/12 03:15:04;;;;;;;48.22;22.55;;;2.20;99.90;;;;;;5088897;28;20039;-43
2021/12/12 03:17:30;;;;;;;47.15;21.80;;;2.30;99.90;;;;;;5089268;28;20032;-43
2021/12/12 03:20:04;;;;;;;47.42;21.45;;;2.30;99.90;;;;;;5091022;28;20059;-43
2021/12/12 03:22:30;;;;;;;41.08;19.42;;;2.30;99.90;;;;;;5090932;28;20024;-44
2021/12/12 03:24:56;;;;;;;42.42;21.15;;;2.30;99.90;;;;;;5089615;28;20107;-43
2021/12/12 03:27:23;;;;;;;45.92;21.05;;;2.30;99.90;;;;;;5090582;28;20461;-45
2021/12/12 03:29:50;;;;;;;48.97;22.20;;;2.30;99.90;;;;;;5091034;28;20466;-43
2021/12/12 03:32:19;;;;;;;48.92;22.08;;;2.30;99.90;;;;;;5090562;28;20028;-43
2021/12/12 03:34:49;;;;;;;47.85;20.65;;;2.30;99.90;;;;;;5090856;28;20562;-42
2021/12/12 03:37:19;;;;;;;43.67;21.17;;;2.30;99.90;;;;;;5090285;28;20032;-43
2021/12/12 03:39:48;;;;;;;50.85;22.10;;;2.30;99.90;;;;;;5105933;28;20024;-43
2021/12/12 03:42:19;;;;;;;42.97;20.65;;;2.30;99.90;;;;;;5087229;28;20394;-43
2021/12/12 03:44:46;;;;;;;49.47;19.67;;;2.30;99.90;;;;;;5086259;28;20084;-43
2021/12/12 03:47:31;;;;;;;48.58;20.08;;;2.30;99.90;;;;;;5089025;28;20545;-43
2021/12/12 03:49:58;;;;;;;46.72;21.88;;;2.40;99.90;;;;;;5090434;28;20028;-42
2021/12/12 03:52:25;;;;;;;46.85;20.10;;;2.40;99.90;;;;;;5090680;28;20120;-42
2021/12/12 03:54:52;;;;;;;40.40;19.42;;;2.40;99.90;;;;;;5090402;28;20020;-43
2021/12/12 03:57:20;;;;;;;41.42;17.83;;;2.50;99.90;;;;;;5089848;28;20024;-42
2021/12/12 03:59:46;;;;;;;41.13;19.30;;;2.60;99.90;;;;;;5090048;28;20562;-42
2021/12/12 04:02:13;;;;;;;39.75;18.40;;;2.60;99.90;;;;;;5090337;28;20031;-43
2021/12/12 04:04:43;;;;;;;42.72;19.65;;;2.60;99.90;;;;;;5090240;28;20035;-42
2021/12/12 04:07:33;;;;;;;45.95;19.80;;;2.60;99.90;;;;;;5089962;28;20451;-42
2021/12/12 04:09:59;;;;;;;39.58;18.65;;;2.70;99.90;;;;;;5090322;28;20027;-43
2021/12/12 04:12:25;;;;;;;42.08;19.23;;;2.70;99.90;;;;;;5085033;28;20025;-43
2021/12/12 04:14:53;;;;;;;37.97;18.92;;;2.70;99.90;;;;;;5086425;28;20032;-43
2021/12/12 04:17:22;;;;;;;36.75;17.35;;;2.70;99.90;;;;;;5073109;28;20029;-43
2021/12/12 04:19:50;;;;;;;36.40;16.90;;;2.70;99.90;;;;;;5069140;28;20031;-43
2021/12/12 04:22:17;;;;;;;36.50;17.55;;;2.80;99.90;;;;;;5066361;28;20446;-43
2021/12/12 04:24:46;;;;;;;39.80;17.25;;;2.80;99.90;;;;;;5069316;28;20020;-43
2021/12/12 04:27:13;;;;;;;37.25;18.05;;;2.80;99.90;;;;;;5068596;28;20031;-42
2021/12/12 04:29:42;;;;;;;34.67;16.83;;;2.80;99.90;;;;;;5068487;28;20043;-43
2021/12/12 04:32:17;;;;;;;40.78;17.25;;;2.80;99.90;;;;;;5069236;28;20398;-43
2021/12/12 04:34:46;;;;;;;38.50;17.30;;;2.80;99.90;;;;;;5068669;28;20176;-43
2021/12/12 04:37:12;;;;;;;36.47;17.02;;;2.80;99.90;;;;;;5070320;28;20028;-43
2021/12/12 04:39:42;;;;;;;38.13;17.35;;;2.90;99.90;;;;;;5068032;28;20512;-44
2021/12/12 04:42:24;;;;;;;37.78;16.80;;;2.80;99.90;;;;;;5072070;28;20017;-42
2021/12/12 04:44:53;;;;;;;37.10;16.90;;;2.90;99.90;;;;;;5067478;28;20024;-43
2021/12/12 04:50:27;;;;;;;27.70;12.43;;;2.90;99.90;;;;;;5068540;28;20086;-49
2021/12/12 04:52:59;;;;;;;32.90;16.58;;;2.90;99.90;;;;;;5067451;28;20036;-44
2021/12/12 04:55:34;;;;;;;37.53;15.98;;;2.90;99.90;;;;;;5067720;28;20116;-43
2021/12/12 04:58:22;;;;;;;36.00;15.52;;;2.90;99.90;;;;;;5068447;28;20497;-44
2021/12/12 05:00:57;;;;;;;34.55;15.50;;;2.90;99.90;;;;;;5066644;28;20025;-43
2021/12/12 05:03:50;;;;;;;39.00;17.40;;;2.80;99.90;;;;;;5067642;28;20016;-43
2021/12/12 05:06:23;;;;;;;36.20;16.80;;;2.90;99.90;;;;;;5067525;28;20021;-44
2021/12/12 05:08:52;;;;;;;38.40;15.98;;;2.90;99.90;;;;;;5066357;28;20024;-45
2021/12/12 05:11:30;;;;;;;32.72;15.75;;;2.90;99.90;;;;;;5072576;28;20023;-43
2021/12/12 05:14:05;;;;;;;35.05;15.02;;;2.90;99.90;;;;;;5080481;28;20023;-46
2021/12/12 05:16:38;;;;;;;38.20;17.58;;;2.90;99.90;;;;;;5089168;28;20064;-43
2021/12/12 05:19:15;;;;;;;33.42;15.88;;;2.90;99.90;;;;;;5082722;28;20528;-43
2021/12/12 05:21:46;;;;;;;34.08;16.45;;;2.90;99.90;;;;;;5068728;28;20127;-44
2021/12/12 05:24:13;;;;;;;32.70;14.63;;;2.90;99.90;;;;;;5068473;28;20140;-44
2021/12/12 05:26:46;;;;;;;33.97;16.08;;;2.90;99.90;;;;;;5068645;28;20021;-44
2021/12/12 05:29:20;;;;;;;37.55;14.98;;;3.00;99.90;;;;;;5068013;28;20109;-45
2021/12/12 05:31:47;;;;;;;31.90;13.57;;;3.00;99.90;;;;;;5066919;28;20503;-44
2021/12/12 05:34:16;;;;;;;32.65;15.05;;;3.10;99.90;;;;;;5067974;28;20032;-43
2021/12/12 05:36:42;;;;;;;25.25;13.15;;;3.00;99.90;;;;;;5068717;28;20060;-44
2021/12/12 05:39:08;;;;;;;35.05;14.43;;;3.10;99.90;;;;;;5067143;28;20031;-43
2021/12/12 05:41:35;;;;;;;29.52;13.45;;;3.10;99.90;;;;;;5069120;28;20021;-44
2021/12/12 05:44:02;;;;;;;32.05;14.63;;;3.10;99.90;;;;;;5076533;28;20082;-44
2021/12/12 05:46:28;;;;;;;29.98;14.15;;;3.10;99.90;;;;;;5068028;28;20029;-43
2021/12/12 05:48:53;;;;;;;33.28;14.02;;;3.20;99.90;;;;;;5066548;28;20100;-42
2021/12/12 05:51:20;;;;;;;27.95;13.65;;;3.20;99.90;;;;;;5067302;28;20385;-43
2021/12/12 05:53:51;;;;;;;31.88;13.57;;;3.20;99.90;;;;;;5066918;28;20028;-43
2021/12/12 05:56:20;;;;;;;;;;;3.20;99.90;;;;;;5067520;28;20029;-43
2021/12/12 05:58:46;;;;;;;31.42;12.73;;;3.20;99.90;;;;;;5069170;28;19908;-44
2021/12/12 06:01:11;;;;;;;33.17;13.70;;;3.20;99.90;;;;;;5071040;28;20054;-47
2021/12/12 06:03:42;;;;;;;31.35;13.07;;;3.20;99.90;;;;;;5071326;28;20021;-47
2021/12/12 06:06:12;;;;;;;26.05;13.13;;;3.20;99.90;;;;;;5071480;28;20017;-47
2021/12/12 06:08:39;;;;;;;28.80;14.25;;;3.20;99.90;;;;;;5067825;28;20024;-47
2021/12/12 06:11:06;;;;;;;32.67;13.50;;;3.30;99.90;;;;;;5071213;28;20139;-47
2021/12/12 06:13:34;;;;;;;33.17;13.13;;;3.30;99.90;;;;;;5071248;28;20312;-47
2021/12/12 06:16:00;;;;;;;30.45;13.73;;;3.30;99.90;;;;;;5067708;28;20123;-48
2021/12/12 06:18:28;;;;;;;31.70;11.82;;;3.30;99.90;;;;;;5070840;28;20020;-47
2021/12/12 06:20:55;;;;;;;22.83;11.43;;;3.30;99.90;;;;;;5069762;28;20418;-47
2021/12/12 06:23:21;;;;;;;25.27;11.82;;;3.40;99.90;;;;;;5071108;28;20016;-47
2021/12/12 06:25:49;;;;;;;23.92;12.30;;;3.40;99.90;;;;;;5071123;28;20044;-47
2021/12/12 06:28:19;;;;;;;21.27;12.13;;;3.40;99.90;;;;;;5070368;28;20028;-47
2021/12/12 06:30:45;;;;;;;23.77;11.75;;;3.40;99.90;;;;;;5071057;28;20031;-47
2021/12/12 06:33:11;;;;;;;24.88;11.70;;;3.50;99.90;;;;;;5071218;28;20033;-47
2021/12/12 06:35:37;;;;;;;28.13;11.63;;;3.50;99.90;;;;;;5070946;28;20024;-47
2021/12/12 06:38:06;;;;;;;21.75;10.05;;;3.50;99.90;;;;;;5068580;28;20025;-47
2021/12/12 06:40:33;;;;;;;21.60;10.52;;;3.50;99.90;;;;;;5070615;28;20031;-47
2021/12/12 06:43:03;;;;;;;30.65;10.60;;;3.60;99.90;;;;;;5070913;28;20028;-46
2021/12/12 06:45:28;;;;;;;23.23;10.35;;;3.60;99.90;;;;;;5071087;28;20021;-47
2021/12/12 06:47:56;;;;;;;25.17;10.88;;;3.60;99.90;;;;;;5070292;28;20479;-47
2021/12/12 06:50:23;;;;;;;24.40;10.15;;;3.60;99.90;;;;;;5070798;28;20028;-47
2021/12/12 06:52:50;;;;;;;26.08;11.07;;;3.70;99.90;;;;;;5070989;28;20013;-47
2021/12/12 06:55:16;;;;;;;21.20;10.85;;;3.70;99.90;;;;;;5068841;28;20024;-47
2021/12/12 06:57:42;;;;;;;23.83;11.02;;;3.70;99.90;;;;;;5069825;28;20032;-47
2021/12/12 07:00:12;;;;;;;22.75;9.43;;;3.70;99.90;;;;;;5072675;28;20638;-47
2021/12/12 07:02:41;;;;;;;16.48;9.15;;;3.70;99.90;;;;;;5072994;28;20571;-48
2021/12/12 07:05:08;;;;;;;21.02;10.50;;;3.70;99.90;;;;;;5072657;28;20105;-47
2021/12/12 07:07:34;;;;;;;26.90;10.02;;;3.70;99.90;;;;;;5071353;28;20029;-48
2021/12/12 07:10:00;;;;;;;24.63;11.02;;;3.70;99.90;;;;;;5075695;28;20031;-47
2021/12/12 07:12:26;;;;;;;20.00;9.40;;;3.70;99.90;;;;;;5082259;28;20497;-47
2021/12/12 07:14:53;;;;;;;22.60;10.60;;;3.70;99.90;;;;;;5087089;28;20186;-47
2021/12/12 07:17:20;;;;;;;19.90;10.02;;;3.70;99.90;;;;;;5080951;28;20020;-48
2021/12/12 07:19:46;;;;;;;21.45;10.20;;;3.70;99.90;;;;;;5084013;28;20442;-47
2021/12/12 07:22:12;;;;;;;21.02;10.20;;;3.70;99.90;;;;;;5083024;28;20024;-47
2021/12/12 07:24:38;;;;;;;20.38;9.32;;;3.70;99.90;;;;;;5079589;28;20100;-47
2021/12/12 07:27:05;;;;;;;19.80;9.57;;;3.70;99.90;;;;;;5083204;28;20024;-48
2021/12/12 07:29:31;;;;;;;20.98;11.27;;;3.80;99.90;;;;;;5079496;28;20374;-51
2021/12/12 07:31:57;;;;;;;21.92;10.35;;;3.80;99.90;;;;;;5079177;28;20028;-49
2021/12/12 07:34:24;;;;;;;17.25;8.75;;;3.80;99.90;;;;;;5080024;28;20141;-47
2021/12/12 07:36:54;;;;;;;18.40;9.18;;;3.80;99.90;;;;;;5082422;28;20228;-50
2021/12/12 07:39:22;;;;;;;19.60;9.60;;;3.90;99.90;;;;;;5077048;28;20413;-49
2021/12/12 07:41:49;;;;;;;20.58;9.13;;;4.00;99.90;;;;;;5081272;28;20017;-48
2021/12/12 07:44:17;;;;;;;18.08;9.43;;;4.00;99.90;;;;;;5082326;28;20024;-48
2021/12/12 07:46:44;;;;;;;19.15;9.00;;;4.00;99.90;;;;;;5081301;28;20021;-48
2021/12/12 07:49:11;;;;;;;17.73;9.20;;;4.10;99.90;;;;;;5079595;28;20115;-47
2021/12/12 07:51:39;;;;;;;14.38;8.43;;;4.10;99.90;;;;;;5081548;28;20477;-47
2021/12/12 07:54:07;;;;;;;21.50;9.02;;;4.10;99.90;;;;;;5079178;28;20040;-47
2021/12/12 07:56:35;;;;;;;18.02;8.48;;;4.20;99.90;;;;;;5083734;28;20038;-47
2021/12/12 07:59:04;;;;;;;20.05;8.82;;;4.20;99.90;;;;;;5084291;28;20024;-49
2021/12/12 08:01:30;;;;;;;20.45;8.00;;;4.30;99.90;;;;;;5078154;28;20732;-48
2021/12/12 08:03:57;;;;;;;17.77;8.80;;;4.40;99.90;;;;;;5074423;28;20048;-47
2021/12/12 08:06:24;;;;;;;17.60;7.85;;;4.40;99.90;;;;;;5079732;28;20481;-47
2021/12/12 08:08:51;;;;;;;16.60;8.30;;;4.40;99.90;;;;;;5081681;28;20063;-47
2021/12/12 08:11:20;;;;;;;16.50;7.13;;;4.40;99.90;;;;;;5079800;28;20419;-47
2021/12/12 08:13:46;;;;;;;17.40;9.10;;;4.50;99.90;;;;;;5083205;28;20259;-47
2021/12/12 08:16:14;;;;;;;20.88;8.88;;;4.50;99.90;;;;;;5091714;28;20024;-48
2021/12/12 08:18:40;;;;;;;15.52;8.02;;;4.50;99.90;;;;;;5084937;28;20069;-47
2021/12/12 08:21:07;;;;;;;15.10;8.88;;;4.50;99.90;;;;;;5083155;28;20028;-47
2021/12/12 08:23:33;;;;;;;18.73;8.48;;;4.50;99.90;;;;;;5091791;28;20020;-48
2021/12/12 08:26:01;;;;;;;21.75;9.27;;;4.50;99.90;;;;;;5091750;28;20024;-48
2021/12/12 08:28:28;;;;;;;15.80;7.10;;;4.50;99.90;;;;;;5090968;28;20066;-47
2021/12/12 08:30:53;;;;;;;13.75;7.00;;;4.50;99.90;;;;;;5088326;28;20456;-47
2021/12/12 08:33:21;;;;;;;17.42;7.43;;;4.60;99.90;;;;;;5070779;28;20029;-48
2021/12/12 08:35:46;;;;;;;15.10;6.88;;;4.60;99.90;;;;;;5070634;28;20028;-50
2021/12/12 08:38:14;;;;;;;20.73;7.63;;;4.60;99.90;;;;;;5076985;28;20032;-50
2021/12/12 08:40:46;;;;;;;15.82;6.97;;;4.60;99.90;;;;;;5071777;28;20612;-48
2021/12/12 08:43:13;;;;;;;17.38;7.22;;;4.60;99.90;;;;;;5071211;28;20100;-48
2021/12/12 08:45:47;;;;;;;14.23;6.93;;;4.60;99.90;;;;;;5071076;28;20023;-47
2021/12/12 08:48:16;;;;;;;20.92;7.20;;;4.60;99.90;;;;;;5078077;28;20549;-50
2021/12/12 08:50:43;;;;;;;16.80;7.28;;;4.70;99.90;;;;;;5086659;28;20549;-49
2021/12/12 08:53:09;;;;;;;17.77;7.68;;;4.70;99.90;;;;;;5089982;28;20031;-48
2021/12/12 08:55:42;;;;;;;16.98;7.63;;;4.70;99.90;;;;;;5091653;28;20077;-49
2021/12/12 08:58:15;;;;;;;16.23;7.47;;;4.60;99.90;;;;;;5090539;28;20024;-48
2021/12/12 09:00:59;;;;;;;18.80;7.35;;;4.60;99.90;;;;;;5088091;28;20056;-48
2021/12/12 09:03:40;;;;;;;16.58;7.13;;;4.60;99.90;;;;;;5076249;28;20575;-48
2021/12/12 09:06:07;;;;;;;;;;;4.60;99.90;;;;;;5091242;28;20107;-53
2021/12/12 09:08:48;;;;;;;12.63;7.18;;;4.60;99.90;;;;;;5090160;28;19973;-53
2021/12/12 09:11:21;;;;;;;14.63;7.00;;;4.50;99.90;;;;;;5090693;28;20670;-53
2021/12/12 09:14:19;;;;;;;15.27;7.63;;;4.50;99.90;;;;;;5087965;28;20064;-53
2021/12/12 09:16:54;;;;;;;16.83;7.35;;;4.50;99.90;;;;;;5065419;28;20032;-53
2021/12/12 09:19:25;;;;;;;14.15;7.55;;;4.50;99.90;;;;;;5069324;28;20040;-54
2021/12/12 09:22:00;;;;;;;17.48;7.05;;;4.50;99.90;;;;;;5067413;28;20402;-54
2021/12/12 09:24:53;;;;;;;18.83;7.50;;;4.40;99.90;;;;;;5072726;28;20039;-53
2021/12/12 09:27:44;;;;;;;17.48;8.10;;;4.30;99.90;;;;;;5067976;28;20420;-53
2021/12/12 09:30:14;;;;;;;16.95;7.15;;;4.30;99.90;;;;;;5071728;28;20036;-48
2021/12/12 09:32:50;;;;;;;11.63;6.35;;;4.30;99.90;;;;;;5078320;28;20559;-48
2021/12/12 09:35:23;;;;;;;15.15;5.95;;;4.40;99.90;;;;;;5068611;28;20098;-47
2021/12/12 09:38:12;;;;;;;13.68;5.60;;;4.40;99.90;;;;;;5067551;28;20017;-49
2021/12/12 09:41:20;;;;;;;13.10;5.80;;;4.50;99.90;;;;;;5055834;28;20047;-48
2021/12/12 09:43:56;;;;;;;13.90;5.90;;;4.50;99.90;;;;;;4986389;28;20526;-47
2021/12/12 09:46:58;;;;;;;12.93;5.50;;;4.60;99.90;;;;;;5060545;28;20043;-47
2021/12/12 09:52:19;;;;;;;15.98;5.70;;;4.60;99.90;;;;;;5067934;28;20039;-47
2021/12/12 09:55:06;;;;;;;17.67;5.15;;;4.70;99.90;;;;;;5084182;28;20386;-50
2021/12/12 09:57:46;;;;;;;13.40;6.03;;;4.70;99.90;;;;;;5047978;28;20029;-47
2021/12/12 10:00:26;;;;;;;12.55;5.47;;;4.70;99.90;;;;;;5048299;28;20037;-47
2021/12/12 10:03:02;;;;;;;15.68;5.65;;;4.70;99.90;;;;;;5048249;28;20108;-47
2021/12/12 10:05:36;;;;;;;17.25;6.13;;;4.70;99.90;;;;;;5048167;28;20014;-48
2021/12/12 10:08:27;;;;;;;16.38;5.57;;;4.70;99.90;;;;;;5046198;28;20429;-49
2021/12/12 10:11:11;;;;;;;11.60;5.68;;;4.70;99.90;;;;;;5048301;28;20399;-47
2021/12/12 10:13:47;;;;;;;15.90;5.10;;;4.70;99.90;;;;;;5046937;28;20064;-47
2021/12/12 10:16:19;;;;;;;15.07;6.45;;;4.70;99.90;;;;;;5048251;28;20425;-48
2021/12/12 10:18:47;;;;;;;9.35;5.47;;;4.70;99.90;;;;;;5047623;28;20403;-47
2021/12/12 10:21:21;;;;;;;12.48;5.57;;;4.80;99.90;;;;;;5062604;28;20064;-48
2021/12/12 10:24:25;;;;;;;10.82;5.30;;;4.90;99.90;;;;;;5076867;28;20059;-48
2021/12/12 10:27:12;;;;;;;15.90;5.00;;;4.80;99.90;;;;;;5029759;28;20037;-48
2021/12/12 10:30:02;;;;;;;11.80;5.93;;;4.80;99.90;;;;;;5083918;28;20036;-47
2021/12/12 10:32:32;;;;;;;12.90;5.38;;;4.80;99.90;;;;;;5026220;28;20551;-48
2021/12/12 10:35:12;;;;;;;17.67;7.25;;;4.60;99.90;;;;;;5067399;28;20028;-48
2021/12/12 10:37:50;;;;;;;13.68;5.82;;;4.60;99.90;;;;;;5066141;28;20063;-47
2021/12/12 10:40:33;;;;;;;17.58;6.25;;;4.50;99.90;;;;;;5063522;28;20217;-49
2021/12/12 10:43:04;;;;;;;22.13;5.82;;;4.50;99.90;;;;;;5066354;28;20016;-48
2021/12/12 10:45:34;;;;;;;17.13;6.20;;;4.50;99.90;;;;;;5069387;28;20016;-49
2021/12/12 10:48:08;;;;;;;17.08;4.93;;;4.50;99.90;;;;;;5068770;28;20047;-48
2021/12/12 10:50:52;;;;;;;18.58;5.32;;;4.50;99.90;;;;;;5068695;28;20510;-48
2021/12/12 10:53:34;;;;;;;11.32;4.82;;;4.60;99.90;;;;;;5068479;28;20020;-48
2021/12/12 10:56:02;;;;;;;16.48;5.05;;;4.60;99.90;;;;;;5069347;28;20123;-47
2021/12/12 10:58:43;;;;;;;10.02;4.50;;;4.60;99.90;;;;;;5068806;28;20025;-48
2021/12/12 11:01:17;;;;;;;13.18;5.25;;;4.60;99.90;;;;;;5068889;28;20558;-47
2021/12/12 11:04:10;;;;;;;12.10;4.53;;;4.70;99.90;;;;;;5069386;28;20490;-48
2021/12/12 11:06:45;;;;;;;21.13;5.90;;;4.80;99.90;;;;;;5069724;28;20027;-48
2021/12/12 11:09:15;;;;;;;10.43;4.30;;;4.80;99.90;;;;;;5068029;28;20526;-47
2021/12/12 11:11:58;;;;;;;;;;;4.90;99.90;;;;;;5070240;28;20031;-48
2021/12/12 11:14:29;;;;;;;17.63;4.53;;;4.80;99.90;;;;;;5069908;28;20268;-50
2021/12/12 11:17:10;;;;;;;21.00;4.32;;;4.90;99.90;;;;;;5071118;28;20056;-49
2021/12/12 11:19:55;;;;;;;18.42;4.30;;;5.00;99.90;;;;;;5075747;28;20044;-47
2021/12/12 11:22:23;;;;;;;16.75;4.88;;;5.00;99.90;;;;;;5067669;28;20448;-48
2021/12/12 11:24:58;;;;;;;9.15;4.40;;;5.10;99.90;;;;;;5071209;28;20040;-47
2021/12/12 11:27:50;;;;;;;14.30;4.60;;;5.10;99.90;;;;;;5071462;28;20440;-48
2021/12/12 11:30:21;;;;;;;8.00;4.07;;;5.10;99.90;;;;;;5059412;28;20033;-48
2021/12/12 11:32:50;;;;;;;13.70;4.47;;;5.20;99.90;;;;;;5089541;28;20024;-48
2021/12/12 11:35:20;;;;;;;9.50;4.75;;;5.20;99.90;;;;;;5090723;28;20073;-48
2021/12/12 11:37:49;;;;;;;11.43;4.88;;;5.20;99.90;;;;;;5090381;28;20480;-48
2021/12/12 11:40:50;;;;;;;8.70;3.63;;;5.20;99.90;;;;;;5090875;28;20028;-49
2021/12/12 11:43:39;;;;;;;15.52;4.53;;;5.20;99.90;;;;;;5017904;28;20030;-48
2021/12/12 11:46:29;;;;;;;11.48;4.38;;;5.20;99.90;;;;;;5084142;28;20027;-48
2021/12/12 11:49:14;;;;;;;8.27;4.38;;;5.30;99.90;;;;;;5055133;28;20116;-48
2021/12/12 11:51:48;;;;;;;11.02;4.80;;;5.30;99.90;;;;;;5048821;28;20210;-49
2021/12/12 11:54:23;;;;;;;12.25;4.70;;;5.40;99.90;;;;;;5049519;28;20021;-48
2021/12/12 11:56:58;;;;;;;10.73;4.07;;;5.40;99.90;;;;;;5074181;28;20104;-48
2021/12/12 11:59:35;;;;;;;12.63;5.00;;;5.40;99.90;;;;;;5047994;28;20094;-50
2021/12/12 12:02:21;;;;;;;10.38;5.00;;;5.50;99.90;;;;;;5063316;28;20029;-52
2021/12/12 12:05:24;;;;;;;8.60;4.05;;;5.50;99.90;;;;;;5069605;28;20052;-49
2021/12/12 12:08:15;;;;;;;10.55;4.00;;;5.50;99.90;;;;;;5067829;28;20025;-48
2021/12/12 12:10:41;;;;;;;10.10;4.20;;;5.60;99.90;;;;;;5068540;28;20044;-49
2021/12/12 12:13:38;;;;;;;11.70;4.53;;;5.70;99.90;;;;;;5069001;28;20105;-50
2021/12/12 12:16:35;;;;;;;13.63;4.10;;;5.70;99.90;;;;;;5069405;28;20029;-49
2021/12/12 12:19:24;;;;;;;13.93;4.70;;;5.70;99.90;;;;;;5068944;28;20020;-48
2021/12/12 12:22:08;;;;;;;10.88;4.07;;;5.80;99.90;;;;;;5068595;28;20023;-54
2021/12/12 12:24:43;;;;;;;9.98;5.05;;;5.80;99.90;;;;;;5067426;28;20056;-47
2021/12/12 12:27:15;;;;;;;7.10;4.10;;;5.80;99.90;;;;;;5071115;28;20028;-49
2021/12/12 12:29:43;;;;;;;6.20;3.97;;;5.80;99.90;;;;;;5064072;28;20397;-48
2021/12/12 12:32:34;;;;;;;8.70;4.25;;;5.80;99.90;;;;;;5064593;28;20066;-49
2021/12/12 12:35:50;;;;;;;11.38;4.47;;;5.80;99.90;;;;;;5066985;28;20024;-47
2021/12/12 12:38:40;;;;;;;10.48;4.97;;;5.80;99.90;;;;;;5066064;28;20036;-49
2021/12/12 12:41:56;;;;;;;7.72;4.63;;;5.80;99.90;;;;;;5066766;28;20043;-48
2021/12/12 12:44:59;;;;;;;8.43;4.50;;;5.80;99.90;;;;;;5068300;28;20067;-47
2021/12/12 12:47:40;;;;;;;6.82;4.18;;;5.90;99.90;;;;;;5062115;28;20474;-48
2021/12/12 12:50:43;;;;;;;8.50;4.30;;;5.90;99.90;;;;;;5065766;28;20115;-48
2021/12/12 12:53:42;;;;;;;7.07;3.85;;;5.90;99.90;;;;;;5064014;28;20043;-48
2021/12/12 12:56:46;;;;;;;6.45;4.28;;;5.90;99.90;;;;;;5062511;28;20060;-50
2021/12/12 12:59:50;;;;;;;7.97;3.83;;;6.00;99.90;;;;;;5081364;28;20024;-48
2021/12/12 13:02:20;;;;;;;8.63;4.18;;;6.00;99.90;;;;;;5090109;28;20012;-48
2021/12/12 13:05:05;;;;;;;6.82;3.72;;;6.00;99.90;;;;;;5073186;28;20016;-48
2021/12/12 13:08:15;;;;;;;7.00;3.65;;;6.00;99.90;;;;;;5065329;28;20032;-48
2021/12/12 13:10:40;;;;;;;7.82;4.35;;;5.90;99.90;;;;;;5067069;28;20066;-47
2021/12/12 13:13:12;;;;;;;10.55;4.32;;;5.90;99.90;;;;;;5068113;28;20101;-50
2021/12/12 13:16:00;;;;;;;7.15;4.43;;;5.90;99.90;;;;;;5068257;28;20036;-48
2021/12/12 13:19:04;;;;;;;10.38;4.75;;;5.90;99.90;;;;;;5067510;28;20020;-48
2021/12/12 13:22:02;;;;;;;6.93;4.13;;;5.90;99.90;;;;;;5005212;28;20040;-48
2021/12/12 13:24:33;;;;;;;6.78;4.32;;;6.00;99.90;;;;;;5067251;28;20024;-48
2021/12/12 13:27:58;;;;;;;7.53;3.85;;;6.00;99.90;;;;;;5067918;28;20029;-48
2021/12/12 13:30:40;;;;;;;7.00;4.40;;;6.00;99.90;;;;;;5046759;28;20114;-48
2021/12/12 13:33:26;;;;;;;6.78;4.63;;;6.00;99.90;;;;;;5053520;28;20055;-48
2021/12/12 13:36:01;;;;;;;7.85;4.75;;;6.00;99.90;;;;;;5068088;28;20036;-47
2021/12/12 13:38:39;;;;;;;11.52;4.82;;;6.00;99.90;;;;;;5071331;28;20023;-48
2021/12/12 13:41:23;;;;;;;9.38;5.03;;;6.00;99.90;;;;;;5065269;28;20054;-48